Salina, KS (67401)

16:20 CDT le 02 septembre 2014 (GMT -0500)
Peters Science Hall | Change Station
CLOSE
Current Station
Stations météorologiques personnelles
Location: Salina, KS
Altitude: 1225 ft
Stations météo à proximité

Alt. 1225 ft 38.81 °N, 97.61 °W | Updated 2 seconds ago

Clear
Ciel dégagé
85.5 ° F
Paraît 89 ° F
N
7.0
Vent Variable Vent de ESE
Gusts 12.0 mph

Aujourd'hui
Haut(e) -- | Bas -- ° F
--% Risque de précip.
Hier
Haut(e) -- | Bas -- ° F
Precip. -- pouce
7:00 AM 7:59 PM
Premier quartier, 55% visible
Pression 29.92 pouce
Visibilité 10.0 Miles terrestres
Nuages Ciel dégagé
indice de chaleur 89 ° F
Point de rosée 68 ° F
Humidité 55%
Précipitations 0.00 pouce
Profondeur de la couche neigeuse Non disponible.
UV 4.5 sur 12
Pollen 10.10 sur 12
Qualité de l'air Non disponible.
Flu Activity Non disponible.
METAR KSLN 022053Z 13009KT 10SM CLR 30/20 A2995 RMK AO2 SLP130 T03000200 58017

More Conditions Fewer Conditions

Pression 29.92 pouce
Visibilité 10.0 Miles terrestres
Nuages Ciel dégagé
indice de chaleur 89 ° F
Point de rosée 68 ° F
Humidité 55%
Précipitations 0.00 pouce
Profondeur de la couche neigeuse Non disponible.
UV 4.5 sur 12
Pollen 10.10 sur 12
Qualité de l'air Non disponible.
Flu Activity Non disponible.
METAR KSLN 022053Z 13009KT 10SM CLR 30/20 A2995 RMK AO2 SLP130 T03000200 58017

More Conditions Fewer Conditions

10-Day Weather Forecast

Almanac

Astronomie

Sep. 02, 2014 Lever Coucher
Temps réel 07:00 CDT 19:59 CDT
Crépuscule civil 06:33 CDT 20:26 CDT
Crépuscule nautique 06:00 CDT 20:58 CDT
Crépuscule astronomique 05:27 CDT 21:32 CDT
Lune 14:42 CDT 00:07 CDT
Durée de lumière visible 13h 53m
Longueur du jour
12h 58m
Tomorrow will be 2m 27s shorter.
Premier quartier, 55% of the Moon is Illuminated
Aujourd'hui
Premier quartier
Sep 8
Pleine lune
Sep 15
Dernier quartier
Sep 24
Nouveau
Oct 1
Premier quartier

Extrêmes aujourd'hui

State Highs State Lows

Community

WunderPhotos

Upload Photos

1,749,769 Photos téléchargées !

Nearby

Épaisseur de neige

Station Depth Altitude
Pas de nouvelles chutes de neige

Activité sismique

Ville Distance Mag. Time & Date
No recent earthquake activity has been reported nearby.
Minimum magnitude displayed is 2.5.

Températures des eaux côtières

Lieu Température
Aucun rapport de station

Stations météo à proximité